• Join FlightAware (Why Join?)
  • Login
  • US Flag 
11:39PM EST


 

Airport Tracker/Info


-or-


 

Live Flight TrackerFlight Track Log ✈ WIG7412 ✈ 26-Nov-2013 ✈ KRUT - KALB

Flight Track Log - Related Links

Times and Time Zones

All times are in EST time to prevent confusion due to time zone crossing. See the WIG7412 flight status page for this flight to view local times or setup timezone preferences in your user account.

Time Position Orientation Groundspeed Altitude Reporting Facility
EST Latitude Longitude Course Direction KTS MPH feet Rate Location/Type
07:07PM 43.3490 -73.1497 218° Southwest  Level Estimated
07:08PM 43.3178 -73.1812 216° Southwest  Level FlightAware Approximate
07:09PM 43.2866 -73.2127 216° Southwest  Level FlightAware Approximate
07:10PM 43.2554 -73.2441 216° Southwest  Level FlightAware Approximate
07:11PM 43.2254 -73.2775 228° Southwest  Level Estimated
07:12PM 43.1948 -73.3101 218° Southwest  Level FlightAware Approximate
07:13PM 43.1648 -73.3435 216° Southwest  Level Estimated
07:14PM 43.1340 -73.3755 217° Southwest  Level FlightAware Approximate
07:15PM 43.1040 -73.4090 216° Southwest  Level Estimated
07:16PM 43.0730 -73.4406 217° Southwest  Level FlightAware Approximate
07:17PM 43.0431 -73.4742 216° Southwest  Level Estimated
07:18PM 43.0119 -73.5055 216° Southwest  Level FlightAware Approximate
07:19PM 42.9807 -73.5367 216° Southwest  Level FlightAware Approximate
07:20PM 42.9511 -73.5707 224° Southwest  Level Estimated
07:21PM 42.9215 -73.6048 224° Southwest  Level Estimated
07:22PM 42.8919 -73.6387 224° Southwest  Level Estimated
07:23PM 42.8623 -73.6727 224° Southwest  Level Estimated
07:24PM 42.8326 -73.7066 224° Southwest  Level Estimated
07:25PM 42.8030 -73.7405 224° Southwest  Level Estimated
07:26PM 42.7734 -73.7743 224° Southwest  Level Estimated
07:27PM 42.7491 -73.8020 224° Southwest  Level Estimated
07:28PM 42.7491 -73.8020 224° Southwest  Level Estimated
07:29PM 42.7491 -73.8020 224° Southwest  Level Estimated
07:30PM 42.7491 -73.8020 224° Southwest  Level Estimated
07:31PM 42.7491 -73.8020 224° Southwest  Level Estimated
07:32PM 42.7491 -73.8020 224° Southwest  Level Estimated
07:33PM 42.7491 -73.8020 224° Southwest  Level Estimated
07:34PM 42.7491 -73.8020 224° Southwest  Level Estimated
07:35PM 42.7491 -73.8020 224° Southwest  Level Estimated
07:36PM 42.7491 -73.8020 224° Southwest  Level Estimated
07:37PM 42.7491 -73.8020 224° Southwest  Level Estimated
07:38PM 42.7491 -73.8020 224° Southwest  Level Estimated
07:39PM 42.7491 -73.8020 224° Southwest  Level Estimated
07:40PM 42.7491 -73.8020 224° Southwest  Level Estimated